sensor_id;sensor_type;location;lat;lon;timestamp;temperature;humidity
52941;DHT22;62001;53.366;6.636;2023-02-15T00:01:46;0.00;99.90
52941;DHT22;62001;53.366;6.636;2023-02-15T00:04:14;0.00;99.90
52941;DHT22;62001;53.366;6.636;2023-02-15T00:06:40;-0.10;99.90
52941;DHT22;62001;53.366;6.636;2023-02-15T00:09:07;-0.10;99.90
52941;DHT22;62001;53.366;6.636;2023-02-15T00:11:33;-0.10;99.90
52941;DHT22;62001;53.366;6.636;2023-02-15T00:16:31;-0.20;99.90
52941;DHT22;62001;53.366;6.636;2023-02-15T00:18:57;-0.20;99.90
52941;DHT22;62001;53.366;6.636;2023-02-15T00:21:28;-0.20;99.90
52941;DHT22;62001;53.366;6.636;2023-02-15T00:23:55;-0.10;99.90
52941;DHT22;62001;53.366;6.636;2023-02-15T00:26:21;-0.10;99.90
52941;DHT22;62001;53.366;6.636;2023-02-15T00:28:47;-0.10;99.90
52941;DHT22;62001;53.366;6.636;2023-02-15T00:31:13;-0.10;99.90
52941;DHT22;62001;53.366;6.636;2023-02-15T00:33:39;0.00;99.90
52941;DHT22;62001;53.366;6.636;2023-02-15T00:36:07;0.00;99.90
52941;DHT22;62001;53.366;6.636;2023-02-15T00:38:34;0.00;99.90
52941;DHT22;62001;53.366;6.636;2023-02-15T00:41:01;0.10;99.90
52941;DHT22;62001;53.366;6.636;2023-02-15T00:43:29;0.00;99.90
52941;DHT22;62001;53.366;6.636;2023-02-15T00:45:55;0.00;99.90
52941;DHT22;62001;53.366;6.636;2023-02-15T00:48:21;0.00;99.90
52941;DHT22;62001;53.366;6.636;2023-02-15T00:50:52;0.00;99.90
52941;DHT22;62001;53.366;6.636;2023-02-15T00:53:19;0.00;99.90
52941;DHT22;62001;53.366;6.636;2023-02-15T00:55:45;0.00;99.90
52941;DHT22;62001;53.366;6.636;2023-02-15T00:58:11;0.00;99.90
52941;DHT22;62001;53.366;6.636;2023-02-15T01:00:38;0.00;99.90
52941;DHT22;62001;53.366;6.636;2023-02-15T01:03:05;0.00;99.90
52941;DHT22;62001;53.366;6.636;2023-02-15T01:05:31;-0.10;99.90
52941;DHT22;62001;53.366;6.636;2023-02-15T01:07:58;-0.10;99.90
52941;DHT22;62001;53.366;6.636;2023-02-15T01:10:25;-0.20;99.90
52941;DHT22;62001;53.366;6.636;2023-02-15T01:12:55;-0.20;99.90
52941;DHT22;62001;53.366;6.636;2023-02-15T01:15:22;-0.30;99.90
52941;DHT22;62001;53.366;6.636;2023-02-15T01:17:48;-0.40;99.90
52941;DHT22;62001;53.366;6.636;2023-02-15T01:20:23;-0.40;99.90
52941;DHT22;62001;53.366;6.636;2023-02-15T01:22:49;-0.50;99.90
52941;DHT22;62001;53.366;6.636;2023-02-15T01:25:20;-0.60;99.90
52941;DHT22;62001;53.366;6.636;2023-02-15T01:27:46;-0.60;99.90
52941;DHT22;62001;53.366;6.636;2023-02-15T01:30:13;-0.70;99.90
52941;DHT22;62001;53.366;6.636;2023-02-15T01:32:40;-0.80;99.90
52941;DHT22;62001;53.366;6.636;2023-02-15T01:35:06;-0.80;99.90
52941;DHT22;62001;53.366;6.636;2023-02-15T01:37:33;-0.80;99.90
52941;DHT22;62001;53.366;6.636;2023-02-15T01:39:59;-0.90;99.90
52941;DHT22;62001;53.366;6.636;2023-02-15T01:42:27;-1.00;99.90
52941;DHT22;62001;53.366;6.636;2023-02-15T01:44:55;-1.10;99.90
52941;DHT22;62001;53.366;6.636;2023-02-15T01:48:33;-1.10;99.90
52941;DHT22;62001;53.366;6.636;2023-02-15T01:50:44;-1.00;99.90
52941;DHT22;62001;53.366;6.636;2023-02-15T01:53:15;-1.00;99.90
52941;DHT22;62001;53.366;6.636;2023-02-15T01:56:23;-1.00;99.90
52941;DHT22;62001;53.366;6.636;2023-02-15T01:58:51;-0.90;99.90
52941;DHT22;62001;53.366;6.636;2023-02-15T02:01:18;-1.00;99.90
52941;DHT22;62001;53.366;6.636;2023-02-15T02:06:24;-0.90;99.90
52941;DHT22;62001;53.366;6.636;2023-02-15T02:08:51;-0.80;99.90
52941;DHT22;62001;53.366;6.636;2023-02-15T02:11:17;-0.80;99.90
52941;DHT22;62001;53.366;6.636;2023-02-15T02:13:44;-0.80;99.90
52941;DHT22;62001;53.366;6.636;2023-02-15T02:16:13;-0.80;99.90
52941;DHT22;62001;53.366;6.636;2023-02-15T02:18:53;-0.80;99.90
52941;DHT22;62001;53.366;6.636;2023-02-15T02:27:42;-0.90;99.90
52941;DHT22;62001;53.366;6.636;2023-02-15T02:43:54;-1.00;99.90
52941;DHT22;62001;53.366;6.636;2023-02-15T02:46:33;-1.00;99.90
52941;DHT22;62001;53.366;6.636;2023-02-15T02:49:01;-1.00;99.90
52941;DHT22;62001;53.366;6.636;2023-02-15T02:51:27;-1.00;99.90
52941;DHT22;62001;53.366;6.636;2023-02-15T02:53:58;-1.00;99.90
52941;DHT22;62001;53.366;6.636;2023-02-15T02:56:39;-1.10;99.90
52941;DHT22;62001;53.366;6.636;2023-02-15T02:59:20;-1.10;99.90
52941;DHT22;62001;53.366;6.636;2023-02-15T03:04:19;-1.20;99.90
52941;DHT22;62001;53.366;6.636;2023-02-15T03:07:01;-1.30;99.90
52941;DHT22;62001;53.366;6.636;2023-02-15T03:09:37;-1.30;99.90
52941;DHT22;62001;53.366;6.636;2023-02-15T03:12:24;-1.40;99.90
52941;DHT22;62001;53.366;6.636;2023-02-15T03:15:01;-1.40;99.90
52941;DHT22;62001;53.366;6.636;2023-02-15T03:17:34;-1.40;99.90
52941;DHT22;62001;53.366;6.636;2023-02-15T03:20:15;-1.50;99.90
52941;DHT22;62001;53.366;6.636;2023-02-15T03:22:46;-1.50;99.90
52941;DHT22;62001;53.366;6.636;2023-02-15T03:25:37;-1.50;99.90
52941;DHT22;62001;53.366;6.636;2023-02-15T03:28:11;-1.50;99.90
52941;DHT22;62001;53.366;6.636;2023-02-15T03:30:40;-1.50;99.90
52941;DHT22;62001;53.366;6.636;2023-02-15T03:33:09;-1.40;99.90
52941;DHT22;62001;53.366;6.636;2023-02-15T03:35:58;-1.30;99.90
52941;DHT22;62001;53.366;6.636;2023-02-15T03:38:40;-1.20;99.90
52941;DHT22;62001;53.366;6.636;2023-02-15T03:41:10;-1.20;99.90
52941;DHT22;62001;53.366;6.636;2023-02-15T03:43:42;-1.10;99.90
52941;DHT22;62001;53.366;6.636;2023-02-15T03:46:33;-1.10;99.90
52941;DHT22;62001;53.366;6.636;2023-02-15T03:49:05;-1.10;99.90
52941;DHT22;62001;53.366;6.636;2023-02-15T03:51:35;-1.10;99.90
52941;DHT22;62001;53.366;6.636;2023-02-15T03:54:10;-1.00;99.90
52941;DHT22;62001;53.366;6.636;2023-02-15T03:56:39;-0.80;99.90
52941;DHT22;62001;53.366;6.636;2023-02-15T03:59:06;-0.70;99.90
52941;DHT22;62001;53.366;6.636;2023-02-15T04:04:55;-0.40;99.90
52941;DHT22;62001;53.366;6.636;2023-02-15T04:07:21;-0.50;99.90
52941;DHT22;62001;53.366;6.636;2023-02-15T04:09:46;-0.50;99.90
52941;DHT22;62001;53.366;6.636;2023-02-15T04:12:31;-0.60;99.90
52941;DHT22;62001;53.366;6.636;2023-02-15T04:14:57;-0.70;99.90
52941;DHT22;62001;53.366;6.636;2023-02-15T04:17:41;-0.70;99.90
52941;DHT22;62001;53.366;6.636;2023-02-15T04:20:08;-0.70;99.90
52941;DHT22;62001;53.366;6.636;2023-02-15T04:22:53;-0.70;99.90
52941;DHT22;62001;53.366;6.636;2023-02-15T04:25:37;-0.70;99.90
52941;DHT22;62001;53.366;6.636;2023-02-15T04:28:03;-0.80;99.90
52941;DHT22;62001;53.366;6.636;2023-02-15T04:30:29;-0.90;99.90
52941;DHT22;62001;53.366;6.636;2023-02-15T04:32:55;-1.00;99.90
52941;DHT22;62001;53.366;6.636;2023-02-15T04:35:22;-1.00;99.90
52941;DHT22;62001;53.366;6.636;2023-02-15T04:37:48;-1.10;99.90
52941;DHT22;62001;53.366;6.636;2023-02-15T04:40:14;-1.10;99.90
52941;DHT22;62001;53.366;6.636;2023-02-15T04:42:40;-1.20;99.90
52941;DHT22;62001;53.366;6.636;2023-02-15T04:45:07;-1.20;99.90
52941;DHT22;62001;53.366;6.636;2023-02-15T04:47:32;-1.20;99.90
52941;DHT22;62001;53.366;6.636;2023-02-15T04:49:58;-1.30;99.90
52941;DHT22;62001;53.366;6.636;2023-02-15T04:52:24;-1.30;99.90
52941;DHT22;62001;53.366;6.636;2023-02-15T04:54:50;-1.30;99.90
52941;DHT22;62001;53.366;6.636;2023-02-15T04:57:16;-1.20;99.90
52941;DHT22;62001;53.366;6.636;2023-02-15T04:59:42;-1.20;99.90
52941;DHT22;62001;53.366;6.636;2023-02-15T05:02:08;-1.20;99.90
52941;DHT22;62001;53.366;6.636;2023-02-15T05:04:34;-1.20;99.90
52941;DHT22;62001;53.366;6.636;2023-02-15T05:07:00;-1.10;99.90
52941;DHT22;62001;53.366;6.636;2023-02-15T05:09:26;-1.10;99.90
52941;DHT22;62001;53.366;6.636;2023-02-15T05:11:51;-1.10;99.90
52941;DHT22;62001;53.366;6.636;2023-02-15T05:14:17;-1.10;99.90
52941;DHT22;62001;53.366;6.636;2023-02-15T05:16:43;-1.20;99.90
52941;DHT22;62001;53.366;6.636;2023-02-15T05:19:09;-1.20;99.90
52941;DHT22;62001;53.366;6.636;2023-02-15T05:21:35;-1.20;99.90
52941;DHT22;62001;53.366;6.636;2023-02-15T05:24:01;-1.20;99.90
52941;DHT22;62001;53.366;6.636;2023-02-15T05:26:47;-1.20;99.90
52941;DHT22;62001;53.366;6.636;2023-02-15T05:29:31;-1.30;99.90
52941;DHT22;62001;53.366;6.636;2023-02-15T05:31:57;-1.30;99.90
52941;DHT22;62001;53.366;6.636;2023-02-15T05:34:23;-1.40;99.90
52941;DHT22;62001;53.366;6.636;2023-02-15T05:36:49;-1.40;99.90
52941;DHT22;62001;53.366;6.636;2023-02-15T05:39:15;-1.40;99.90
52941;DHT22;62001;53.366;6.636;2023-02-15T05:41:40;-1.40;99.90
52941;DHT22;62001;53.366;6.636;2023-02-15T05:44:06;-1.40;99.90
52941;DHT22;62001;53.366;6.636;2023-02-15T05:46:32;-1.30;99.90
52941;DHT22;62001;53.366;6.636;2023-02-15T05:48:58;-1.20;99.90
52941;DHT22;62001;53.366;6.636;2023-02-15T05:51:23;-1.10;99.90
52941;DHT22;62001;53.366;6.636;2023-02-15T05:53:49;-1.00;99.90
52941;DHT22;62001;53.366;6.636;2023-02-15T05:56:15;-1.10;99.90
52941;DHT22;62001;53.366;6.636;2023-02-15T05:58:41;-1.10;99.90
52941;DHT22;62001;53.366;6.636;2023-02-15T06:01:13;-1.20;99.90
52941;DHT22;62001;53.366;6.636;2023-02-15T06:03:39;-1.20;99.90
52941;DHT22;62001;53.366;6.636;2023-02-15T06:06:06;-1.20;99.90
52941;DHT22;62001;53.366;6.636;2023-02-15T06:08:33;-1.20;99.90
52941;DHT22;62001;53.366;6.636;2023-02-15T06:10:59;-1.20;99.90
52941;DHT22;62001;53.366;6.636;2023-02-15T06:13:26;-1.30;99.90
52941;DHT22;62001;53.366;6.636;2023-02-15T06:15:52;-1.30;99.90
52941;DHT22;62001;53.366;6.636;2023-02-15T06:18:18;-1.30;99.90
52941;DHT22;62001;53.366;6.636;2023-02-15T06:20:47;-1.30;99.90
52941;DHT22;62001;53.366;6.636;2023-02-15T06:23:13;-1.40;99.90
52941;DHT22;62001;53.366;6.636;2023-02-15T06:25:39;-1.30;99.90
52941;DHT22;62001;53.366;6.636;2023-02-15T06:28:05;-1.00;99.90
52941;DHT22;62001;53.366;6.636;2023-02-15T06:30:31;-0.80;99.90
52941;DHT22;62001;53.366;6.636;2023-02-15T06:32:57;-0.80;99.90
52941;DHT22;62001;53.366;6.636;2023-02-15T06:35:23;-0.70;99.90
52941;DHT22;62001;53.366;6.636;2023-02-15T06:37:49;-0.60;99.90
52941;DHT22;62001;53.366;6.636;2023-02-15T06:40:15;-0.60;99.90
52941;DHT22;62001;53.366;6.636;2023-02-15T06:42:41;-0.50;99.90
52941;DHT22;62001;53.366;6.636;2023-02-15T06:45:08;-0.60;99.90
52941;DHT22;62001;53.366;6.636;2023-02-15T06:47:34;-0.60;99.90
52941;DHT22;62001;53.366;6.636;2023-02-15T06:50:00;-0.60;99.90
52941;DHT22;62001;53.366;6.636;2023-02-15T06:52:26;-0.60;99.90
52941;DHT22;62001;53.366;6.636;2023-02-15T06:54:51;-0.60;99.90
52941;DHT22;62001;53.366;6.636;2023-02-15T06:57:17;-0.60;99.90
52941;DHT22;62001;53.366;6.636;2023-02-15T06:59:43;-0.60;99.90
52941;DHT22;62001;53.366;6.636;2023-02-15T07:02:11;-0.60;99.90
52941;DHT22;62001;53.366;6.636;2023-02-15T07:04:37;-0.50;99.90
52941;DHT22;62001;53.366;6.636;2023-02-15T07:07:03;-0.50;99.90
52941;DHT22;62001;53.366;6.636;2023-02-15T07:09:29;-0.50;99.90
52941;DHT22;62001;53.366;6.636;2023-02-15T07:11:55;-0.60;99.90
52941;DHT22;62001;53.366;6.636;2023-02-15T07:14:39;-0.50;99.90
52941;DHT22;62001;53.366;6.636;2023-02-15T07:17:06;-0.50;99.90
52941;DHT22;62001;53.366;6.636;2023-02-15T07:19:32;-0.40;99.90
52941;DHT22;62001;53.366;6.636;2023-02-15T07:21:58;-0.40;99.90
52941;DHT22;62001;53.366;6.636;2023-02-15T07:24:24;-0.40;99.90
52941;DHT22;62001;53.366;6.636;2023-02-15T07:26:50;-0.30;99.90
52941;DHT22;62001;53.366;6.636;2023-02-15T07:29:15;-0.30;99.90
52941;DHT22;62001;53.366;6.636;2023-02-15T07:31:41;-0.30;99.90
52941;DHT22;62001;53.366;6.636;2023-02-15T07:34:11;-0.40;99.90
52941;DHT22;62001;53.366;6.636;2023-02-15T07:36:37;-0.50;99.90
52941;DHT22;62001;53.366;6.636;2023-02-15T07:39:03;-0.50;99.90
52941;DHT22;62001;53.366;6.636;2023-02-15T07:41:28;-0.50;99.90
52941;DHT22;62001;53.366;6.636;2023-02-15T07:43:54;-0.50;99.90
52941;DHT22;62001;53.366;6.636;2023-02-15T07:46:21;-0.50;99.90
52941;DHT22;62001;53.366;6.636;2023-02-15T07:48:47;-0.50;99.90
52941;DHT22;62001;53.366;6.636;2023-02-15T07:51:13;-0.40;99.90
52941;DHT22;62001;53.366;6.636;2023-02-15T07:53:40;-0.20;99.90
52941;DHT22;62001;53.366;6.636;2023-02-15T07:56:13;0.00;99.90
52941;DHT22;62001;53.366;6.636;2023-02-15T07:58:39;0.20;99.90
52941;DHT22;62001;53.366;6.636;2023-02-15T08:01:30;0.40;99.90
52941;DHT22;62001;53.366;6.636;2023-02-15T08:03:57;0.60;99.90
52941;DHT22;62001;53.366;6.636;2023-02-15T08:06:25;0.80;99.90
52941;DHT22;62001;53.366;6.636;2023-02-15T08:08:52;1.10;99.90
52941;DHT22;62001;53.366;6.636;2023-02-15T08:11:26;1.40;99.90
52941;DHT22;62001;53.366;6.636;2023-02-15T08:14:13;1.80;99.90
52941;DHT22;62001;53.366;6.636;2023-02-15T08:19:13;2.70;99.90
52941;DHT22;62001;53.366;6.636;2023-02-15T08:21:42;3.10;99.90
52941;DHT22;62001;53.366;6.636;2023-02-15T08:24:09;3.30;99.90
52941;DHT22;62001;53.366;6.636;2023-02-15T08:26:36;3.40;99.90
52941;DHT22;62001;53.366;6.636;2023-02-15T08:29:02;3.40;99.90
52941;DHT22;62001;53.366;6.636;2023-02-15T08:31:29;3.30;99.90
52941;DHT22;62001;53.366;6.636;2023-02-15T08:33:56;3.10;99.90
52941;DHT22;62001;53.366;6.636;2023-02-15T08:36:25;2.90;99.90
52941;DHT22;62001;53.366;6.636;2023-02-15T08:38:51;2.90;99.90
52941;DHT22;62001;53.366;6.636;2023-02-15T08:41:21;2.90;99.90
52941;DHT22;62001;53.366;6.636;2023-02-15T08:43:49;2.90;99.90
52941;DHT22;62001;53.366;6.636;2023-02-15T08:46:19;3.00;99.90
52941;DHT22;62001;53.366;6.636;2023-02-15T08:48:46;3.10;99.90
52941;DHT22;62001;53.366;6.636;2023-02-15T08:51:14;3.20;99.90
52941;DHT22;62001;53.366;6.636;2023-02-15T08:53:42;3.30;99.90
52941;DHT22;62001;53.366;6.636;2023-02-15T08:56:09;3.40;99.90
52941;DHT22;62001;53.366;6.636;2023-02-15T08:58:35;3.50;99.90
52941;DHT22;62001;53.366;6.636;2023-02-15T09:01:11;3.90;99.90
52941;DHT22;62001;53.366;6.636;2023-02-15T09:03:38;4.40;99.90
52941;DHT22;62001;53.366;6.636;2023-02-15T09:06:04;4.70;99.90
52941;DHT22;62001;53.366;6.636;2023-02-15T09:08:30;5.00;99.90
52941;DHT22;62001;53.366;6.636;2023-02-15T09:11:07;5.30;99.90
52941;DHT22;62001;53.366;6.636;2023-02-15T09:13:34;5.90;99.90
52941;DHT22;62001;53.366;6.636;2023-02-15T09:16:07;6.20;99.90
52941;DHT22;62001;53.366;6.636;2023-02-15T09:18:36;6.20;99.90
52941;DHT22;62001;53.366;6.636;2023-02-15T09:21:14;6.10;99.90
52941;DHT22;62001;53.366;6.636;2023-02-15T09:23:41;6.00;99.90
52941;DHT22;62001;53.366;6.636;2023-02-15T09:26:18;6.10;99.90
52941;DHT22;62001;53.366;6.636;2023-02-15T09:28:44;6.30;99.90
52941;DHT22;62001;53.366;6.636;2023-02-15T09:31:14;6.40;99.90
52941;DHT22;62001;53.366;6.636;2023-02-15T09:33:44;6.80;99.90
52941;DHT22;62001;53.366;6.636;2023-02-15T09:36:26;7.30;99.90
52941;DHT22;62001;53.366;6.636;2023-02-15T09:39:15;7.90;99.90
52941;DHT22;62001;53.366;6.636;2023-02-15T09:48:10;7.80;99.90
52941;DHT22;62001;53.366;6.636;2023-02-15T09:50:27;7.80;99.90
52941;DHT22;62001;53.366;6.636;2023-02-15T09:56:08;7.60;99.90
52941;DHT22;62001;53.366;6.636;2023-02-15T10:20:28;10.40;99.90
52941;DHT22;62001;53.366;6.636;2023-02-15T10:25:42;10.40;99.90
52941;DHT22;62001;53.366;6.636;2023-02-15T10:28:17;10.30;99.90
52941;DHT22;62001;53.366;6.636;2023-02-15T10:30:49;10.50;99.90
52941;DHT22;62001;53.366;6.636;2023-02-15T10:33:23;10.40;99.90
52941;DHT22;62001;53.366;6.636;2023-02-15T10:39:26;10.50;99.90
52941;DHT22;62001;53.366;6.636;2023-02-15T10:42:06;10.70;99.90
52941;DHT22;62001;53.366;6.636;2023-02-15T10:50:47;10.90;99.90
52941;DHT22;62001;53.366;6.636;2023-02-15T11:03:38;10.40;99.90
52941;DHT22;62001;53.366;6.636;2023-02-15T11:06:11;10.10;99.90
52941;DHT22;62001;53.366;6.636;2023-02-15T11:08:45;9.90;99.90
52941;DHT22;62001;53.366;6.636;2023-02-15T11:11:31;9.80;99.90
52941;DHT22;62001;53.366;6.636;2023-02-15T11:14:43;9.80;99.90
52941;DHT22;62001;53.366;6.636;2023-02-15T11:16:52;9.70;99.90
52941;DHT22;62001;53.366;6.636;2023-02-15T11:19:27;9.70;99.90
52941;DHT22;62001;53.366;6.636;2023-02-15T11:22:05;9.70;99.90
52941;DHT22;62001;53.366;6.636;2023-02-15T11:24:33;9.70;99.90
52941;DHT22;62001;53.366;6.636;2023-02-15T11:30:09;9.70;99.90
52941;DHT22;62001;53.366;6.636;2023-02-15T11:32:39;9.80;99.90
52941;DHT22;62001;53.366;6.636;2023-02-15T11:40:30;9.90;99.90
52941;DHT22;62001;53.366;6.636;2023-02-15T11:43:47;9.80;99.90
52941;DHT22;62001;53.366;6.636;2023-02-15T11:45:46;9.80;99.90
52941;DHT22;62001;53.366;6.636;2023-02-15T11:48:13;9.90;99.90
52941;DHT22;62001;53.366;6.636;2023-02-15T11:50:41;9.80;99.90
52941;DHT22;62001;53.366;6.636;2023-02-15T11:53:15;9.90;99.90
52941;DHT22;62001;53.366;6.636;2023-02-15T11:55:43;9.90;99.90
52941;DHT22;62001;53.366;6.636;2023-02-15T12:03:43;10.00;99.90
52941;DHT22;62001;53.366;6.636;2023-02-15T12:06:28;10.20;99.90
52941;DHT22;62001;53.366;6.636;2023-02-15T12:09:06;10.20;99.90
52941;DHT22;62001;53.366;6.636;2023-02-15T12:11:39;10.30;99.90
52941;DHT22;62001;53.366;6.636;2023-02-15T12:14:10;10.40;99.90
52941;DHT22;62001;53.366;6.636;2023-02-15T12:16:51;10.50;99.90
52941;DHT22;62001;53.366;6.636;2023-02-15T12:19:34;10.60;99.90
52941;DHT22;62001;53.366;6.636;2023-02-15T12:22:03;10.70;99.90
52941;DHT22;62001;53.366;6.636;2023-02-15T12:24:37;10.80;99.90
52941;DHT22;62001;53.366;6.636;2023-02-15T12:27:10;11.00;99.90
52941;DHT22;62001;53.366;6.636;2023-02-15T12:29:44;11.10;99.90
52941;DHT22;62001;53.366;6.636;2023-02-15T12:32:17;11.00;99.90
52941;DHT22;62001;53.366;6.636;2023-02-15T12:34:44;10.90;99.90
52941;DHT22;62001;53.366;6.636;2023-02-15T12:37:21;10.90;99.90
52941;DHT22;62001;53.366;6.636;2023-02-15T12:39:57;10.90;99.90
52941;DHT22;62001;53.366;6.636;2023-02-15T12:42:24;10.80;99.90
52941;DHT22;62001;53.366;6.636;2023-02-15T12:45:00;10.90;99.90
52941;DHT22;62001;53.366;6.636;2023-02-15T12:47:27;10.80;99.90
52941;DHT22;62001;53.366;6.636;2023-02-15T12:50:24;10.70;99.90
52941;DHT22;62001;53.366;6.636;2023-02-15T12:53:12;10.80;99.90
52941;DHT22;62001;53.366;6.636;2023-02-15T12:56:11;10.90;99.90
52941;DHT22;62001;53.366;6.636;2023-02-15T12:58:40;11.00;99.90
52941;DHT22;62001;53.366;6.636;2023-02-15T13:01:16;11.00;99.90
52941;DHT22;62001;53.366;6.636;2023-02-15T13:04:03;11.00;99.90
52941;DHT22;62001;53.366;6.636;2023-02-15T13:06:35;11.00;99.90
52941;DHT22;62001;53.366;6.636;2023-02-15T13:09:26;11.00;99.90
52941;DHT22;62001;53.366;6.636;2023-02-15T13:12:25;11.00;99.90
52941;DHT22;62001;53.366;6.636;2023-02-15T13:14:56;11.00;99.90
52941;DHT22;62001;53.366;6.636;2023-02-15T13:17:30;11.00;99.90
52941;DHT22;62001;53.366;6.636;2023-02-15T13:20:18;11.00;99.90
52941;DHT22;62001;53.366;6.636;2023-02-15T13:23:03;10.90;99.90
52941;DHT22;62001;53.366;6.636;2023-02-15T13:25:44;10.80;99.90
52941;DHT22;62001;53.366;6.636;2023-02-15T13:28:22;10.80;99.90
52941;DHT22;62001;53.366;6.636;2023-02-15T13:30:52;10.70;99.90
52941;DHT22;62001;53.366;6.636;2023-02-15T13:33:33;10.70;99.90
52941;DHT22;62001;53.366;6.636;2023-02-15T13:36:15;10.80;99.90
52941;DHT22;62001;53.366;6.636;2023-02-15T13:39:10;10.70;99.90
52941;DHT22;62001;53.366;6.636;2023-02-15T13:41:59;10.80;99.90
52941;DHT22;62001;53.366;6.636;2023-02-15T13:44:29;10.80;99.90
52941;DHT22;62001;53.366;6.636;2023-02-15T13:47:17;10.80;99.90
52941;DHT22;62001;53.366;6.636;2023-02-15T13:52:31;10.90;99.90
52941;DHT22;62001;53.366;6.636;2023-02-15T13:55:08;10.90;99.90
52941;DHT22;62001;53.366;6.636;2023-02-15T14:17:42;11.10;99.90
52941;DHT22;62001;53.366;6.636;2023-02-15T14:23:12;11.10;99.90
52941;DHT22;62001;53.366;6.636;2023-02-15T14:25:51;11.10;99.90
52941;DHT22;62001;53.366;6.636;2023-02-15T14:28:42;11.10;99.90
52941;DHT22;62001;53.366;6.636;2023-02-15T14:31:11;11.00;99.90
52941;DHT22;62001;53.366;6.636;2023-02-15T14:33:39;11.00;99.90
52941;DHT22;62001;53.366;6.636;2023-02-15T14:36:08;11.00;99.90
52941;DHT22;62001;53.366;6.636;2023-02-15T14:39:04;11.00;99.90
52941;DHT22;62001;53.366;6.636;2023-02-15T14:41:48;11.00;99.90
52941;DHT22;62001;53.366;6.636;2023-02-15T14:44:23;10.90;99.90
52941;DHT22;62001;53.366;6.636;2023-02-15T14:49:30;10.90;99.90
52941;DHT22;62001;53.366;6.636;2023-02-15T14:52:00;10.90;99.90
52941;DHT22;62001;53.366;6.636;2023-02-15T15:07:08;10.60;99.90
52941;DHT22;62001;53.366;6.636;2023-02-15T15:09:37;10.50;99.90
52941;DHT22;62001;53.366;6.636;2023-02-15T15:14:57;10.40;99.90
52941;DHT22;62001;53.366;6.636;2023-02-15T15:19:59;10.30;99.90
52941;DHT22;62001;53.366;6.636;2023-02-15T15:22:27;10.20;99.90
52941;DHT22;62001;53.366;6.636;2023-02-15T15:24:55;10.20;99.90
52941;DHT22;62001;53.366;6.636;2023-02-15T15:27:47;10.10;99.90
52941;DHT22;62001;53.366;6.636;2023-02-15T15:49:33;9.60;99.90
52941;DHT22;62001;53.366;6.636;2023-02-15T15:52:02;9.50;99.90
52941;DHT22;62001;53.366;6.636;2023-02-15T15:54:39;9.50;99.90
52941;DHT22;62001;53.366;6.636;2023-02-15T15:57:06;9.40;99.90
52941;DHT22;62001;53.366;6.636;2023-02-15T15:59:44;9.30;99.90
52941;DHT22;62001;53.366;6.636;2023-02-15T16:02:14;9.30;99.90
52941;DHT22;62001;53.366;6.636;2023-02-15T16:04:41;9.20;99.90
52941;DHT22;62001;53.366;6.636;2023-02-15T16:07:22;9.10;99.90
52941;DHT22;62001;53.366;6.636;2023-02-15T16:10:00;9.10;99.90
52941;DHT22;62001;53.366;6.636;2023-02-15T16:12:31;9.00;99.90
52941;DHT22;62001;53.366;6.636;2023-02-15T16:14:58;9.00;99.90
52941;DHT22;62001;53.366;6.636;2023-02-15T16:17:28;8.90;99.90
52941;DHT22;62001;53.366;6.636;2023-02-15T16:20:20;8.80;99.90
52941;DHT22;62001;53.366;6.636;2023-02-15T16:22:53;8.70;99.90
52941;DHT22;62001;53.366;6.636;2023-02-15T16:27:48;8.50;99.90
52941;DHT22;62001;53.366;6.636;2023-02-15T16:30:23;8.40;99.90
52941;DHT22;62001;53.366;6.636;2023-02-15T16:32:53;8.30;99.90
52941;DHT22;62001;53.366;6.636;2023-02-15T16:35:20;8.20;99.90
52941;DHT22;62001;53.366;6.636;2023-02-15T16:37:47;7.90;99.90
52941;DHT22;62001;53.366;6.636;2023-02-15T16:40:26;7.70;99.90
52941;DHT22;62001;53.366;6.636;2023-02-15T16:43:01;7.70;99.90
52941;DHT22;62001;53.366;6.636;2023-02-15T16:45:29;7.50;99.90
52941;DHT22;62001;53.366;6.636;2023-02-15T16:47:57;7.50;99.90
52941;DHT22;62001;53.366;6.636;2023-02-15T16:50:30;7.40;99.90
52941;DHT22;62001;53.366;6.636;2023-02-15T16:52:56;7.50;99.90
52941;DHT22;62001;53.366;6.636;2023-02-15T16:55:28;7.40;99.90
52941;DHT22;62001;53.366;6.636;2023-02-15T16:57:57;7.30;99.90
52941;DHT22;62001;53.366;6.636;2023-02-15T17:00:26;7.30;99.90
52941;DHT22;62001;53.366;6.636;2023-02-15T17:03:02;7.20;99.90
52941;DHT22;62001;53.366;6.636;2023-02-15T17:05:48;7.10;99.90
52941;DHT22;62001;53.366;6.636;2023-02-15T17:13:37;6.80;99.90
52941;DHT22;62001;53.366;6.636;2023-02-15T17:18:38;6.90;99.90
52941;DHT22;62001;53.366;6.636;2023-02-15T17:21:16;6.90;99.90
52941;DHT22;62001;53.366;6.636;2023-02-15T17:23:48;6.90;99.90
52941;DHT22;62001;53.366;6.636;2023-02-15T17:26:17;6.90;99.90
52941;DHT22;62001;53.366;6.636;2023-02-15T17:28:45;6.90;99.90
52941;DHT22;62001;53.366;6.636;2023-02-15T17:31:14;6.90;99.90
52941;DHT22;62001;53.366;6.636;2023-02-15T17:33:41;6.90;99.90
52941;DHT22;62001;53.366;6.636;2023-02-15T17:36:09;6.80;99.90
52941;DHT22;62001;53.366;6.636;2023-02-15T17:38:41;6.80;99.90
52941;DHT22;62001;53.366;6.636;2023-02-15T17:41:32;6.70;99.90
52941;DHT22;62001;53.366;6.636;2023-02-15T17:44:00;6.70;99.90
52941;DHT22;62001;53.366;6.636;2023-02-15T17:46:30;6.60;99.90
52941;DHT22;62001;53.366;6.636;2023-02-15T17:48:59;6.60;99.90
52941;DHT22;62001;53.366;6.636;2023-02-15T17:51:24;6.50;99.90
52941;DHT22;62001;53.366;6.636;2023-02-15T17:53:50;6.40;99.90
52941;DHT22;62001;53.366;6.636;2023-02-15T17:56:39;6.40;99.90
52941;DHT22;62001;53.366;6.636;2023-02-15T17:59:05;6.30;99.90
52941;DHT22;62001;53.366;6.636;2023-02-15T18:01:47;6.20;99.90
52941;DHT22;62001;53.366;6.636;2023-02-15T18:04:33;6.20;99.90
52941;DHT22;62001;53.366;6.636;2023-02-15T18:07:19;6.10;99.90
52941;DHT22;62001;53.366;6.636;2023-02-15T18:10:14;6.10;99.90
52941;DHT22;62001;53.366;6.636;2023-02-15T18:12:58;6.10;99.90
52941;DHT22;62001;53.366;6.636;2023-02-15T18:15:24;6.00;99.90
52941;DHT22;62001;53.366;6.636;2023-02-15T18:17:50;6.00;99.90
52941;DHT22;62001;53.366;6.636;2023-02-15T18:20:21;6.00;99.90
52941;DHT22;62001;53.366;6.636;2023-02-15T18:22:50;6.00;99.90
52941;DHT22;62001;53.366;6.636;2023-02-15T18:25:18;6.00;99.90
52941;DHT22;62001;53.366;6.636;2023-02-15T18:27:45;5.90;99.90
52941;DHT22;62001;53.366;6.636;2023-02-15T18:30:17;5.90;99.90
52941;DHT22;62001;53.366;6.636;2023-02-15T18:32:44;5.90;99.90
52941;DHT22;62001;53.366;6.636;2023-02-15T18:35:19;5.90;99.90
52941;DHT22;62001;53.366;6.636;2023-02-15T18:37:47;5.90;99.90
52941;DHT22;62001;53.366;6.636;2023-02-15T18:40:15;5.90;99.90
52941;DHT22;62001;53.366;6.636;2023-02-15T18:42:42;5.90;99.90
52941;DHT22;62001;53.366;6.636;2023-02-15T18:47:38;5.90;99.90
52941;DHT22;62001;53.366;6.636;2023-02-15T18:50:05;5.90;99.90
52941;DHT22;62001;53.366;6.636;2023-02-15T18:52:33;5.90;99.90
52941;DHT22;62001;53.366;6.636;2023-02-15T18:55:04;5.80;99.90
52941;DHT22;62001;53.366;6.636;2023-02-15T18:57:37;5.80;99.90
52941;DHT22;62001;53.366;6.636;2023-02-15T19:00:05;5.80;99.90
52941;DHT22;62001;53.366;6.636;2023-02-15T19:02:31;5.80;99.90
52941;DHT22;62001;53.366;6.636;2023-02-15T19:04:57;5.70;99.90